Time;durP1;ratioP1;P1;durP2;ratioP2;P2;SDS_P1;SDS_P2;PMS_P1;PMS_P2;Temp;Humidity;BMP_temperature;BMP_pressure;BME280_temperature;BME280_humidity;BME280_pressure;Samples;Min_cycle;Max_cycle;Signal;HPM_P1;HPM_P2
2023/10/09 00:02:24;;;;;;;3.22;2.05;;;;;;;;;;5051955;28;20494;-72
2023/10/09 00:04:51;;;;;;;3.60;1.77;;;;;;;;;;5051039;28;20053;-72
2023/10/09 00:07:19;;;;;;;2.35;1.70;;;;;;;;;;5052491;28;20037;-72
2023/10/09 00:09:50;;;;;;;2.30;2.10;;;;;;;;;;5051812;28;20040;-72
2023/10/09 00:12:23;;;;;;;2.97;1.98;;;21.10;78.80;;;;;;5051581;28;20108;-72
2023/10/09 00:14:50;;;;;;;1.70;1.40;;;21.00;83.70;;;;;;5051488;28;20557;-72
2023/10/09 00:17:19;;;;;;;3.17;2.05;;;21.10;78.80;;;;;;5051547;28;20033;-72
2023/10/09 00:19:49;;;;;;;1.80;1.70;;;21.00;83.80;;;;;;5051578;28;20041;-72
2023/10/09 00:25:09;;;;;;;4.55;1.60;;;;;;;;;;5051585;28;20053;-72
2023/10/09 00:27:36;;;;;;;2.05;1.63;;;;;;;;;;5051304;28;20490;-72
2023/10/09 00:30:06;;;;;;;3.22;1.75;;;;;;;;;;5051121;28;20039;-72
2023/10/09 00:32:33;;;;;;;2.33;1.63;;;;;;;;;;5051230;28;20079;-72
2023/10/09 00:35:35;;;;;;;1.88;1.58;;;;;;;;;;5052038;28;20279;-72
2023/10/09 00:37:45;;;;;;;2.45;1.77;;;;;;;;;;5051236;28;20033;-72
2023/10/09 00:40:12;;;;;;;2.72;1.90;;;;;;;;;;5051262;28;20041;-72
2023/10/09 00:42:39;;;;;;;2.13;1.67;;;;;;;;;;5051469;28;20095;-72
2023/10/09 00:45:07;;;;;;;4.50;2.00;;;;;;;;;;5051089;28;20060;-72
2023/10/09 00:47:34;;;;;;;2.45;1.83;;;21.00;84.10;;;;;;5051598;28;20098;-72
2023/10/09 00:52:49;;;;;;;3.38;2.25;;;21.00;84.30;;;;;;5051699;28;20029;-72
2023/10/09 00:55:19;;;;;;;3.03;1.50;;;;;;;;;;5051210;28;20048;-72
2023/10/09 00:57:57;;;;;;;2.03;1.83;;;;;;;;;;5051211;28;20476;-72
2023/10/09 01:00:32;;;;;;;2.53;1.83;;;;;;;;;;5051325;28;20082;-72
2023/10/09 01:11:14;;;;;;;3.53;1.67;;;21.00;81.20;;;;;;5051048;28;20256;-72
2023/10/09 01:16:17;;;;;;;2.25;1.83;;;21.00;84.10;;;;;;5054422;28;20400;-72
2023/10/09 01:18:44;;;;;;;2.95;1.70;;;;;;;;;;5055173;28;20049;-72
2023/10/09 01:21:14;;;;;;;3.45;1.92;;;;;;;;;;5055015;28;20361;-72
2023/10/09 01:24:07;;;;;;;3.72;1.90;;;21.00;78.90;;;;;;5054817;28;20045;-73
2023/10/09 01:26:44;;;;;;;6.75;2.15;;;20.90;78.90;;;;;;5054815;28;20079;-73
2023/10/09 01:29:14;;;;;;;2.35;1.60;;;20.90;84.30;;;;;;5054810;28;20102;-73
2023/10/09 01:31:56;;;;;;;4.03;2.10;;;20.80;78.80;;;;;;5054786;28;20037;-73
2023/10/09 01:34:41;;;;;;;2.25;1.42;;;20.90;84.50;;;;;;5055021;28;20046;-73
2023/10/09 01:37:18;;;;;;;1.85;1.60;;;20.90;84.40;;;;;;5054981;28;20440;-72
2023/10/09 01:40:04;;;;;;;1.98;1.75;;;20.90;78.90;;;;;;5055211;28;20136;-73
2023/10/09 01:47:46;;;;;;;2.97;1.77;;;;;;;;;;5054576;28;20033;-73
2023/10/09 01:50:19;;;;;;;2.30;1.65;;;;;;;;;;5054439;28;20045;-73
2023/10/09 01:52:46;;;;;;;2.70;2.03;;;;;;;;;;5054889;28;20112;-73
2023/10/09 01:55:35;;;;;;;2.28;1.85;;;;;;;;;;5054527;28;20377;-73
2023/10/09 01:58:24;;;;;;;2.90;2.05;;;;;;;;;;5033922;28;20041;-73
2023/10/09 02:01:02;;;;;;;2.25;1.70;;;;;;;;;;5034410;28;20053;-73
2023/10/09 02:03:29;;;;;;;2.53;1.20;;;;;;;;;;5033822;28;20049;-73
2023/10/09 02:06:17;;;;;;;3.30;1.80;;;;;;;;;;5034090;28;20125;-73
2023/10/09 02:08:49;;;;;;;2.55;1.75;;;;;;;;;;5034343;28;20037;-73
2023/10/09 02:11:23;;;;;;;3.47;2.10;;;;;;;;;;5034176;28;20112;-73
2023/10/09 02:13:53;;;;;;;2.20;1.55;;;;;;;;;;5034034;28;20033;-73
2023/10/09 02:16:28;;;;;;;2.67;1.75;;;;;;;;;;5033877;28;20025;-73
2023/10/09 02:18:56;;;;;;;2.97;2.03;;;;;;;;;;5034120;28;20037;-73
2023/10/09 02:21:33;;;;;;;1.83;1.60;;;;;;;;;;5034105;28;20424;-71
2023/10/09 02:24:26;;;;;;;3.20;1.75;;;;;;;;;;5033785;28;20159;-71
2023/10/09 02:29:23;;;;;;;3.67;2.13;;;;;;;;;;5033949;28;20499;-72
2023/10/09 02:31:55;;;;;;;1.42;1.33;;;;;;;;;;5033432;28;20507;-71
2023/10/09 02:34:24;;;;;;;1.88;1.60;;;;;;;;;;5033739;28;20116;-72
2023/10/09 02:36:57;;;;;;;;;;;20.70;84.80;;;;;;5034754;28;20037;-72
2023/10/09 02:39:27;;;;;;;3.15;1.90;;;20.80;84.80;;;;;;5039962;28;20275;-72
2023/10/09 02:42:00;;;;;;;1.83;1.40;;;20.90;82.60;;;;;;5033282;28;20483;-72
2023/10/09 02:44:26;;;;;;;2.90;1.52;;;;;;;;;;5033471;28;20052;-72
2023/10/09 02:46:57;;;;;;;1.67;1.45;;;;;;;;;;5033100;28;20116;-72
2023/10/09 02:49:23;;;;;;;1.92;1.50;;;;;;;;;;5033303;28;20041;-71
2023/10/09 02:51:53;;;;;;;2.17;1.50;;;;;;;;;;5033333;28;20444;-71
2023/10/09 02:57:06;;;;;;;2.05;1.52;;;20.70;84.90;;;;;;5042362;28;20073;-72
2023/10/09 02:59:32;;;;;;;2.00;1.70;;;;;;;;;;5052986;28;20064;-72
2023/10/09 03:01:59;;;;;;;2.33;1.92;;;;;;;;;;5052948;28;20040;-72
2023/10/09 03:04:29;;;;;;;2.25;1.80;;;20.70;79.50;;;;;;5053372;28;20049;-72
2023/10/09 03:06:57;;;;;;;2.40;1.63;;;;;;;;;;5053233;28;20107;-72
2023/10/09 03:09:27;;;;;;;2.70;1.60;;;;;;;;;;5052976;28;20377;-72
2023/10/09 03:12:04;;;;;;;3.13;1.52;;;20.80;85.00;;;;;;5053195;28;20041;-72
2023/10/09 03:14:35;;;;;;;2.42;1.65;;;20.80;85.00;;;;;;5053140;28;20052;-73
2023/10/09 03:17:01;;;;;;;3.17;1.48;;;22.10;83.90;;;;;;5052803;28;20493;-72
2023/10/09 03:19:39;;;;;;;3.10;1.63;;;20.70;79.30;;;;;;5052933;28;20412;-72
2023/10/09 03:22:10;;;;;;;1.88;1.52;;;20.70;82.20;;;;;;5052983;28;20029;-72
2023/10/09 03:24:36;;;;;;;;;;;20.70;85.50;;;;;;5052928;28;20064;-72
2023/10/09 03:27:02;;;;;;;2.72;1.50;;;;;;;;;;5052716;28;19936;-72
2023/10/09 03:29:28;;;;;;;2.53;1.70;;;;;;;;;;5052560;28;20040;-72
2023/10/09 03:31:56;;;;;;;2.58;1.60;;;;;;;;;;5052410;28;20033;-72
2023/10/09 03:34:22;;;;;;;3.45;1.90;;;;;;;;;;5052677;28;20037;-72
2023/10/09 03:36:51;;;;;;;3.15;1.83;;;;;;;;;;5052383;28;20044;-72
2023/10/09 03:42:05;;;;;;;1.75;1.45;;;;;;;;;;5052731;28;20036;-72
2023/10/09 03:44:33;;;;;;;;;;;20.70;79.60;;;;;;5052608;28;20052;-72
2023/10/09 03:47:01;;;;;;;1.88;1.50;;;;;;;;;;5052073;28;19917;-72
2023/10/09 03:49:29;;;;;;;3.03;1.55;;;;;;;;;;5052127;28;20033;-72
2023/10/09 03:51:55;;;;;;;1.45;1.35;;;;;;;;;;5052359;28;20064;-72
2023/10/09 03:54:22;;;;;;;2.70;1.70;;;;;;;;;;5051985;28;20072;-72
2023/10/09 03:56:58;;;;;;;2.65;1.80;;;20.70;82.40;;;;;;5051599;28;20045;-71
2023/10/09 03:59:30;;;;;;;2.65;1.90;;;;;;;;;;5051724;28;20091;-72
2023/10/09 04:08:46;;;;;;;3.58;2.08;;;;;;;;;;5032452;28;20055;-69
2023/10/09 04:11:16;;;;;;;2.80;1.95;;;;;;;;;;5032184;28;20129;-69
2023/10/09 04:13:49;;;;;;;3.93;1.90;;;20.70;84.90;;;;;;5032136;28;20376;-69
2023/10/09 04:18:57;;;;;;;2.67;1.80;;;20.60;81.90;;;;;;5032098;28;20037;-69
2023/10/09 04:21:36;;;;;;;2.42;1.80;;;20.70;85.20;;;;;;5031984;28;20144;-69
2023/10/09 04:26:44;;;;;;;3.75;1.98;;;20.70;83.70;;;;;;5032162;28;20025;-69
2023/10/09 04:29:27;;;;;;;3.03;1.75;;;20.10;83.20;;;;;;5032071;28;20033;-69
2023/10/09 04:31:56;;;;;;;2.70;1.88;;;20.70;85.00;;;;;;5032083;28;20040;-69
2023/10/09 04:34:28;;;;;;;2.92;2.08;;;20.70;79.50;;;;;;5031736;28;20072;-69
2023/10/09 04:38:04;;;;;;;4.10;1.83;;;20.70;79.60;;;;;;5032558;28;20043;-69
2023/10/09 04:40:11;;;;;;;3.22;1.67;;;;;;;;;;5014249;28;20049;-69
2023/10/09 04:42:37;;;;;;;2.38;1.50;;;;;;;;;;5032061;28;20447;-69
2023/10/09 04:47:37;;;;;;;2.42;1.83;;;20.70;85.30;;;;;;5031909;28;20037;-69
2023/10/09 04:50:36;;;;;;;2.78;1.83;;;;;;;;;;5033945;28;20029;-69
2023/10/09 04:55:44;;;;;;;5.30;1.90;;;;;;;;;;5038200;28;20113;-69
2023/10/09 04:58:23;;;;;;;2.30;1.73;;;;;;;;;;5038212;28;20038;-69
2023/10/09 05:01:13;;;;;;;3.85;1.92;;;;;;;;;;5038085;28;20108;-69
2023/10/09 05:06:20;;;;;;;4.07;2.17;;;;;;;;;;5018478;28;20034;-69
2023/10/09 05:08:47;;;;;;;3.45;1.85;;;;;;;;;;5018072;28;20034;-69
2023/10/09 05:14:11;;;;;;;3.95;1.63;;;;;;;;;;5018488;28;20065;-69
2023/10/09 05:16:51;;;;;;;3.25;1.90;;;;;;;;;;5018592;28;20046;-68
2023/10/09 05:22:07;;;;;;;2.58;1.88;;;;;;;;;;5018454;28;20404;-71
2023/10/09 05:24:44;;;;;;;4.50;1.83;;;;;;;;;;5018379;28;20049;-75
2023/10/09 05:27:24;;;;;;;3.47;1.95;;;;;;;;;;5018419;28;20446;-70
2023/10/09 05:29:59;;;;;;;3.88;1.88;;;;;;;;;;5025660;28;20048;-71
2023/10/09 05:32:35;;;;;;;4.50;1.92;;;;;;;;;;5018848;28;20495;-71
2023/10/09 05:37:33;;;;;;;3.70;2.15;;;20.60;79.80;;;;;;5018229;28;20392;-70
2023/10/09 05:42:43;;;;;;;4.00;1.75;;;;;;;;;;5017942;28;20385;-70
2023/10/09 05:47:58;;;;;;;4.47;2.40;;;;;;;;;;5018135;28;20072;-70
2023/10/09 06:14:03;;;;;;;5.07;2.15;;;;;;;;;;5014810;28;20036;-69
2023/10/09 06:16:41;;;;;;;2.17;1.70;;;;;;;;;;5014771;28;20034;-69
2023/10/09 06:24:33;;;;;;;3.70;1.88;;;20.60;85.40;;;;;;5014566;28;20037;-69
2023/10/09 06:29:36;;;;;;;4.47;1.70;;;20.50;83.70;;;;;;5014659;28;20441;-69
2023/10/09 06:34:51;;;;;;;4.78;1.98;;;;;;;;;;5014122;28;20471;-71
2023/10/09 06:40:10;;;;;;;2.95;1.90;;;20.60;85.10;;;;;;5014314;28;20120;-72
2023/10/09 06:45:14;;;;;;;2.55;1.85;;;20.60;80.10;;;;;;5013672;28;20125;-71
2023/10/09 06:47:55;;;;;;;4.63;2.13;;;20.60;80.50;;;;;;5013842;28;20084;-70
2023/10/09 06:52:57;;;;;;;2.85;2.13;;;20.60;85.80;;;;;;5014054;28;20108;-70
2023/10/09 06:55:50;;;;;;;4.22;1.70;;;;;;;;;;5013522;28;20392;-71
2023/10/09 06:58:23;;;;;;;4.13;1.95;;;20.60;82.60;;;;;;5013769;28;20040;-71
2023/10/09 07:03:53;;;;;;;2.90;1.83;;;20.50;83.30;;;;;;5013343;28;20053;-71
2023/10/09 07:17:15;;;;;;;7.40;2.33;;;20.50;80.30;;;;;;5013610;28;20042;-73
2023/10/09 07:24:57;;;;;;;3.47;2.03;;;20.60;80.40;;;;;;5013330;28;20133;-72
2023/10/09 07:33:05;;;;;;;3.88;2.15;;;;;;;;;;4996314;28;20044;-73
2023/10/09 07:35:47;;;;;;;6.28;2.17;;;20.50;80.30;;;;;;5011934;28;20036;-72
2023/10/09 07:38:36;;;;;;;4.70;1.77;;;;;;;;;;5012719;28;20116;-73
2023/10/09 07:43:50;;;;;;;4.53;2.45;;;;;;;;;;5012868;28;20053;-72
2023/10/09 07:46:30;;;;;;;3.80;2.20;;;20.50;85.90;;;;;;5012556;28;20041;-73
2023/10/09 07:49:24;;;;;;;4.85;2.42;;;;;;;;;;5012470;28;20491;-72
2023/10/09 07:52:02;;;;;;;4.88;2.15;;;;;;;;;;5011199;28;20072;-73
2023/10/09 07:54:35;;;;;;;4.70;2.22;;;;;;;;;;5012561;28;20061;-72
2023/10/09 07:57:28;;;;;;;2.65;1.95;;;20.50;80.50;;;;;;5011486;28;20061;-73
2023/10/09 08:00:12;;;;;;;3.10;2.08;;;;;;;;;;5011304;28;20461;-72
2023/10/09 08:03:00;;;;;;;3.67;1.90;;;;;;;;;;5012155;28;20054;-72
2023/10/09 08:05:44;;;;;;;3.38;2.00;;;20.60;86.00;;;;;;5011221;28;20409;-70
2023/10/09 08:14:00;;;;;;;4.03;2.10;;;;;;;;;;5012904;28;20123;-70
2023/10/09 08:16:43;;;;;;;3.25;1.88;;;;;;;;;;5011669;28;20034;-70
2023/10/09 08:19:32;;;;;;;3.05;2.15;;;;;;;;;;5014665;28;20046;-72
2023/10/09 08:24:56;;;;;;;3.50;2.28;;;20.70;84.50;;;;;;5011089;28;20456;-68
2023/10/09 08:27:54;;;;;;;3.90;2.70;;;;;;;;;;5011711;28;20121;-68
2023/10/09 08:35:47;;;;;;;3.90;2.30;;;20.70;83.80;;;;;;5012234;28;20176;-68
2023/10/09 08:38:13;;;;;;;4.03;2.40;;;;;;;;;;5012220;28;20087;-68
2023/10/09 08:41:16;;;;;;;4.40;2.50;;;20.70;86.40;;;;;;5011781;28;20095;-69
2023/10/09 08:43:56;;;;;;;5.15;2.40;;;20.70;86.50;;;;;;5009964;28;20054;-68
2023/10/09 08:46:42;;;;;;;4.05;2.53;;;;;;;;;;5011740;28;20037;-72
2023/10/09 08:49:29;;;;;;;3.83;1.92;;;;;;;;;;4997662;28;20080;-68
2023/10/09 08:52:15;;;;;;;4.55;2.20;;;;;;;;;;4996895;28;20033;-68
2023/10/09 08:55:00;;;;;;;5.15;2.40;;;;;;;;;;5011603;28;20030;-68
2023/10/09 08:57:47;;;;;;;2.22;1.92;;;;;;;;;;5011488;28;20042;-69
2023/10/09 09:00:33;;;;;;;4.97;2.10;;;;;;;;;;5011624;28;20030;-69
2023/10/09 09:03:22;;;;;;;3.78;2.15;;;20.80;86.50;;;;;;5011369;28;20041;-69
2023/10/09 09:06:00;;;;;;;3.15;2.25;;;20.80;86.70;;;;;;5011758;28;20038;-69
2023/10/09 09:08:30;;;;;;;4.65;2.40;;;20.80;85.60;;;;;;5011703;28;20041;-69
2023/10/09 09:11:22;;;;;;;3.85;2.50;;;20.80;86.50;;;;;;5011332;28;20038;-69
2023/10/09 09:14:18;;;;;;;3.05;1.83;;;;;;;;;;5011184;28;20030;-69
2023/10/09 09:16:55;;;;;;;4.35;2.58;;;;;;;;;;5009379;28;20062;-69
2023/10/09 09:19:31;;;;;;;4.00;1.70;;;20.90;86.70;;;;;;5011985;28;20030;-70
2023/10/09 09:22:11;;;;;;;4.57;2.35;;;;;;;;;;5011444;28;20034;-69
2023/10/09 09:24:38;;;;;;;3.38;2.10;;;;;;;;;;5011182;28;20045;-70
2023/10/09 09:27:20;;;;;;;4.65;2.60;;;20.90;87.00;;;;;;5011359;28;20034;-70
2023/10/09 09:29:53;;;;;;;5.22;2.58;;;20.90;84.80;;;;;;5011569;28;20096;-70
2023/10/09 09:32:36;;;;;;;4.07;2.40;;;20.90;87.00;;;;;;5011448;28;20034;-70
2023/10/09 09:35:04;;;;;;;4.35;2.47;;;20.80;84.50;;;;;;5011637;28;20033;-70
2023/10/09 09:42:56;;;;;;;6.25;3.03;;;;;;;;;;5014800;28;20570;-70
2023/10/09 09:45:24;;;;;;;5.47;3.05;;;21.00;87.20;;;;;;5014791;28;20454;-71
2023/10/09 09:47:58;;;;;;;6.03;3.42;;;;;;;;;;5014938;28;20065;-71
2023/10/09 09:50:26;;;;;;;3.80;2.70;;;;;;;;;;5014846;28;20038;-71
2023/10/09 09:52:53;;;;;;;4.38;2.45;;;;;;;;;;5014730;28;20061;-70
2023/10/09 09:55:22;;;;;;;4.72;2.78;;;;;;;;;;5014678;28;20069;-71
2023/10/09 09:57:53;;;;;;;4.00;2.47;;;21.20;87.60;;;;;;5014473;28;20061;-69
2023/10/09 10:00:42;;;;;;;4.72;2.83;;;21.20;87.70;;;;;;5014539;28;20042;-69
2023/10/09 10:03:12;;;;;;;5.35;3.00;;;21.10;87.60;;;;;;5014089;28;20077;-68
2023/10/09 10:05:42;;;;;;;5.70;2.78;;;21.10;87.80;;;;;;4997859;28;20046;-69
2023/10/09 10:08:13;;;;;;;6.82;2.88;;;21.10;85.60;;;;;;5014632;28;20114;-69
2023/10/09 10:10:57;;;;;;;6.47;3.17;;;21.10;87.70;;;;;;5014383;28;20046;-70
2023/10/09 10:13:41;;;;;;;4.85;2.80;;;21.20;82.30;;;;;;5014614;28;20030;-71
2023/10/09 10:16:20;;;;;;;4.85;3.22;;;21.20;87.70;;;;;;5014607;28;20038;-71
2023/10/09 10:19:00;;;;;;;5.18;3.08;;;21.20;82.20;;;;;;5014522;28;20030;-71
2023/10/09 10:24:09;;;;;;;4.55;2.47;;;;;;;;;;5014192;28;20122;-71
2023/10/09 10:26:36;;;;;;;5.13;3.10;;;;;;;;;;5014223;28;20038;-73
2023/10/09 10:29:24;;;;;;;6.75;3.33;;;21.30;82.50;;;;;;5014580;28;20048;-71
2023/10/09 10:31:57;;;;;;;7.53;3.28;;;21.30;82.70;;;;;;5014845;28;20042;-71
2023/10/09 10:34:25;;;;;;;4.82;3.05;;;21.30;88.00;;;;;;5013857;28;20038;-70
2023/10/09 10:37:01;;;;;;;6.65;3.30;;;21.30;88.00;;;;;;5013912;28;20038;-70
2023/10/09 10:39:42;;;;;;;4.15;2.53;;;;;;;;;;5013824;28;20464;-70
2023/10/09 10:42:09;;;;;;;7.63;3.90;;;21.40;86.30;;;;;;5014233;28;20117;-71
2023/10/09 10:44:41;;;;;;;5.75;3.03;;;;;;;;;;5013838;28;20121;-70
2023/10/09 10:47:22;;;;;;;7.03;3.40;;;21.40;88.00;;;;;;5013360;28;20034;-69
2023/10/09 10:49:50;;;;;;;5.80;3.28;;;21.50;88.20;;;;;;5013577;28;20053;-69
2023/10/09 10:52:35;;;;;;;5.53;3.03;;;21.50;82.40;;;;;;5013784;28;20396;-71
2023/10/09 10:55:57;;;;;;;5.88;2.90;;;21.60;82.50;;;;;;5013832;28;20034;-71
2023/10/09 10:58:02;;;;;;;5.70;3.42;;;;;;;;;;4999440;28;20042;-70
2023/10/09 11:03:29;;;;;;;4.82;2.85;;;21.60;87.80;;;;;;5014123;28;19929;-70
2023/10/09 11:06:12;;;;;;;3.78;2.78;;;21.70;88.00;;;;;;5013198;28;20534;-70
2023/10/09 11:08:57;;;;;;;7.57;3.17;;;21.70;88.00;;;;;;5013401;28;20030;-71
2023/10/09 11:11:46;;;;;;;6.22;3.25;;;;;;;;;;5013213;28;20125;-68
2023/10/09 11:14:42;;;;;;;5.75;3.33;;;;;;;;;;5011628;28;20045;-69
2023/10/09 11:17:25;;;;;;;4.97;3.10;;;21.90;82.00;;;;;;5010980;28;20485;-69
2023/10/09 11:20:26;;;;;;;6.00;3.20;;;21.90;85.90;;;;;;5012255;28;20030;-69
2023/10/09 11:25:50;;;;;;;5.43;2.92;;;22.10;81.80;;;;;;5013338;28;20045;-69
2023/10/09 11:28:29;;;;;;;5.43;3.27;;;22.10;87.40;;;;;;5013273;28;20502;-68
2023/10/09 11:31:12;;;;;;;4.93;2.55;;;22.20;81.90;;;;;;5010364;28;20026;-69
2023/10/09 11:33:52;;;;;;;5.90;3.03;;;22.20;81.80;;;;;;5013354;28;20058;-69
2023/10/09 11:36:31;;;;;;;6.25;2.90;;;22.10;87.40;;;;;;5013013;28;20106;-69
2023/10/09 11:39:22;;;;;;;4.75;2.97;;;22.20;84.20;;;;;;5013129;28;20034;-69
2023/10/09 11:41:55;;;;;;;6.93;2.83;;;;;;;;;;5012582;28;20030;-68
2023/10/09 11:44:39;;;;;;;6.10;3.15;;;22.20;87.40;;;;;;5012453;28;20045;-69
2023/10/09 11:47:23;;;;;;;4.72;2.80;;;22.30;86.10;;;;;;5012877;28;20128;-69
2023/10/09 11:50:17;;;;;;;3.90;2.60;;;22.30;87.60;;;;;;5012907;28;20037;-69
2023/10/09 11:55:52;;;;;;;6.35;2.78;;;22.40;82.50;;;;;;5012646;28;20104;-69
2023/10/09 11:58:24;;;;;;;5.97;3.00;;;22.40;86.00;;;;;;5012588;28;20424;-69
2023/10/09 12:01:17;;;;;;;5.43;2.80;;;22.40;87.70;;;;;;5011660;28;20037;-69
2023/10/09 12:03:58;;;;;;;4.15;2.67;;;;;;;;;;5011180;28;20042;-69
2023/10/09 12:06:44;;;;;;;4.57;2.63;;;;;;;;;;5012003;28;20026;-69
2023/10/09 12:09:29;;;;;;;5.53;2.92;;;;;;;;;;5011936;28;20044;-70
2023/10/09 12:12:18;;;;;;;4.30;3.05;;;;;;;;;;5011970;28;20078;-69
2023/10/09 12:14:45;;;;;;;5.68;3.05;;;;;;;;;;5012106;28;20120;-70
2023/10/09 12:17:11;;;;;;;3.78;3.13;;;;;;;;;;4994744;28;20400;-70
2023/10/09 12:19:40;;;;;;;7.13;3.28;;;22.30;83.10;;;;;;5011789;28;20041;-70
2023/10/09 12:22:10;;;;;;;6.05;2.92;;;22.00;82.80;;;;;;5011927;28;20034;-69
2023/10/09 12:24:43;;;;;;;4.72;2.53;;;;;;;;;;5011786;28;20112;-70
2023/10/09 12:27:11;;;;;;;6.85;3.13;;;;;;;;;;5012014;28;20038;-70
2023/10/09 12:29:37;;;;;;;4.32;2.55;;;;;;;;;;5011750;28;20492;-70
2023/10/09 12:32:03;;;;;;;5.88;3.35;;;;;;;;;;5011753;28;20044;-69
2023/10/09 12:34:33;;;;;;;5.72;2.80;;;;;;;;;;5011940;28;20053;-70
2023/10/09 12:37:01;;;;;;;8.05;3.97;;;;;;;;;;5012029;28;20034;-69
2023/10/09 12:39:33;;;;;;;6.68;3.47;;;;;;;;;;5012064;28;20034;-71
2023/10/09 12:42:08;;;;;;;5.35;3.15;;;22.40;82.80;;;;;;5012125;28;20037;-70
2023/10/09 12:44:38;;;;;;;6.97;3.00;;;;;;;;;;5011860;28;20042;-70
2023/10/09 12:47:11;;;;;;;5.10;3.58;;;22.40;82.90;;;;;;5011917;28;20072;-70
2023/10/09 12:49:40;;;;;;;5.50;3.38;;;;;;;;;;5011671;28;20092;-70
2023/10/09 12:52:15;;;;;;;8.60;3.20;;;;;;;;;;5011795;28;20037;-71
2023/10/09 12:54:41;;;;;;;8.02;3.78;;;;;;;;;;5011767;28;20037;-70
2023/10/09 12:57:13;;;;;;;9.88;3.40;;;;;;;;;;5011976;28;20400;-70
2023/10/09 12:59:39;;;;;;;8.15;3.58;;;;;;;;;;5011742;28;20104;-70
2023/10/09 13:02:06;;;;;;;5.85;3.70;;;;;;;;;;5011992;28;20053;-70
2023/10/09 13:04:33;;;;;;;6.72;3.17;;;;;;;;;;5011688;28;20053;-70
2023/10/09 13:07:03;;;;;;;7.38;3.75;;;;;;;;;;5011953;28;20506;-71
2023/10/09 13:09:42;;;;;;;5.78;3.22;;;;;;;;;;5011621;28;20038;-71
2023/10/09 13:12:08;;;;;;;7.95;3.80;;;;;;;;;;5014807;28;20112;-70
2023/10/09 13:14:35;;;;;;;6.40;3.78;;;;;;;;;;5015391;28;20477;-69
2023/10/09 13:17:09;;;;;;;8.30;3.95;;;22.40;88.40;;;;;;5015352;28;20038;-70
2023/10/09 13:19:36;;;;;;;5.80;3.60;;;;;;;;;;5015675;28;20100;-69
2023/10/09 13:22:03;;;;;;;8.07;3.75;;;;;;;;;;5015424;28;20056;-70
2023/10/09 13:24:31;;;;;;;6.47;4.32;;;;;;;;;;5015547;28;20447;-70
2023/10/09 13:27:04;;;;;;;5.65;3.83;;;;;;;;;;5015302;28;20041;-70
2023/10/09 13:29:33;;;;;;;6.63;3.55;;;;;;;;;;5015098;28;20503;-71
2023/10/09 13:32:02;;;;;;;5.00;3.22;;;;;;;;;;5015796;28;20040;-71
2023/10/09 13:34:29;;;;;;;8.05;3.85;;;;;;;;;;5015137;28;20096;-71
2023/10/09 13:36:58;;;;;;;7.13;3.90;;;;;;;;;;5014915;28;20030;-71
2023/10/09 13:39:25;;;;;;;4.45;3.53;;;;;;;;;;5015244;28;20116;-71
2023/10/09 13:42:01;;;;;;;9.07;3.67;;;22.50;83.20;;;;;;5015280;28;20041;-71
2023/10/09 13:44:31;;;;;;;6.72;3.50;;;22.50;83.10;;;;;;5015112;28;20046;-71
2023/10/09 13:47:05;;;;;;;5.43;3.53;;;22.50;88.50;;;;;;5015132;28;20065;-71
2023/10/09 13:49:32;;;;;;;5.30;3.50;;;22.50;87.70;;;;;;5015086;28;20033;-71
2023/10/09 13:52:01;;;;;;;6.28;4.18;;;22.60;88.30;;;;;;5015105;28;20127;-71
2023/10/09 13:57:07;;;;;;;7.20;3.78;;;22.60;83.00;;;;;;5015004;28;20036;-71
2023/10/09 13:59:43;;;;;;;5.25;3.20;;;22.80;85.30;;;;;;5014571;28;20157;-71
2023/10/09 14:02:09;;;;;;;5.35;3.47;;;;;;;;;;5014350;28;20045;-71
2023/10/09 14:04:36;;;;;;;4.97;3.33;;;;;;;;;;5014341;28;20065;-72
2023/10/09 14:07:05;;;;;;;5.22;3.30;;;;;;;;;;5014508;28;20053;-71
2023/10/09 14:09:31;;;;;;;4.72;2.65;;;23.30;83.10;;;;;;5014446;28;20502;-70
2023/10/09 14:12:11;;;;;;;7.03;3.63;;;23.30;85.80;;;;;;5014529;28;20038;-70
2023/10/09 14:14:46;;;;;;;5.93;3.30;;;23.40;80.60;;;;;;5014469;28;20034;-70
2023/10/09 14:17:14;;;;;;;6.53;3.85;;;23.40;84.00;;;;;;5014274;28;20038;-70
2023/10/09 14:19:46;;;;;;;6.15;3.53;;;23.30;85.70;;;;;;5014235;28;20484;-70
2023/10/09 14:22:15;;;;;;;6.25;3.03;;;;;;;;;;5013207;28;20069;-70
2023/10/09 14:24:44;;;;;;;6.72;3.60;;;;;;;;;;5014046;28;20056;-70
2023/10/09 14:27:15;;;;;;;6.63;3.25;;;;;;;;;;5013538;28;20030;-70
2023/10/09 14:29:42;;;;;;;5.85;3.13;;;;;;;;;;4997271;28;20647;-70
2023/10/09 14:32:12;;;;;;;5.05;3.28;;;;;;;;;;5014172;28;20396;-69
2023/10/09 14:34:46;;;;;;;4.63;2.97;;;;;;;;;;5014286;28;20062;-71
2023/10/09 14:37:14;;;;;;;6.55;3.40;;;;;;;;;;5014115;28;20456;-70
2023/10/09 14:39:41;;;;;;;5.25;3.08;;;23.00;83.50;;;;;;5014005;28;20312;-70
2023/10/09 14:42:12;;;;;;;5.88;2.90;;;;;;;;;;4996464;28;20038;-71
2023/10/09 14:44:40;;;;;;;9.00;2.95;;;;;;;;;;5013909;28;20120;-71
2023/10/09 14:47:07;;;;;;;3.92;2.83;;;;;;;;;;5013738;28;20030;-70
2023/10/09 14:49:37;;;;;;;7.35;3.08;;;;;;;;;;5013740;28;20109;-70
2023/10/09 14:52:08;;;;;;;6.35;3.00;;;22.90;87.40;;;;;;5013524;28;20420;-70
2023/10/09 14:54:35;;;;;;;7.72;3.47;;;22.90;84.60;;;;;;4996323;28;20030;-70
2023/10/09 14:57:05;;;;;;;7.05;3.40;;;;;;;;;;5013380;28;20035;-70
2023/10/09 14:59:31;;;;;;;4.70;3.35;;;;;;;;;;5013351;28;20456;-70
2023/10/09 15:01:58;;;;;;;4.15;2.70;;;;;;;;;;5013124;28;20045;-71
2023/10/09 15:04:25;;;;;;;4.45;3.03;;;;;;;;;;5013359;28;20105;-73
2023/10/09 15:06:51;;;;;;;6.28;3.30;;;;;;;;;;5013260;28;20561;-70
2023/10/09 15:09:28;;;;;;;5.60;3.28;;;;;;;;;;5013251;28;20038;-71
2023/10/09 15:11:54;;;;;;;8.48;3.67;;;;;;;;;;5013424;28;20332;-70
2023/10/09 15:14:20;;;;;;;4.45;2.78;;;;;;;;;;5013188;28;20042;-70
2023/10/09 15:16:50;;;;;;;4.90;3.28;;;23.40;80.60;;;;;;5012982;28;20042;-72
2023/10/09 15:19:16;;;;;;;4.43;2.83;;;;;;;;;;5013489;28;20048;-71
2023/10/09 15:21:46;;;;;;;7.72;3.25;;;;;;;;;;5013487;28;20037;-70
2023/10/09 15:24:19;;;;;;;7.65;4.03;;;23.30;85.10;;;;;;5012989;28;20512;-72
2023/10/09 15:26:57;;;;;;;4.93;2.95;;;23.40;84.30;;;;;;5013328;28;20045;-71
2023/10/09 15:29:28;;;;;;;4.95;3.13;;;23.40;85.90;;;;;;5013161;28;20133;-71
2023/10/09 15:31:55;;;;;;;6.30;3.78;;;23.40;84.20;;;;;;5013234;28;20038;-71
2023/10/09 15:34:22;;;;;;;5.45;3.47;;;;;;;;;;5012942;28;20034;-71
2023/10/09 15:36:49;;;;;;;5.47;3.22;;;;;;;;;;4995615;28;20030;-72
2023/10/09 15:39:19;;;;;;;5.28;2.80;;;;;;;;;;5012972;28;20413;-72
2023/10/09 15:41:47;;;;;;;9.25;3.65;;;23.40;85.20;;;;;;5016121;28;20034;-69
2023/10/09 15:44:13;;;;;;;6.22;3.50;;;;;;;;;;5014812;28;20041;-70
2023/10/09 15:46:39;;;;;;;6.03;3.05;;;;;;;;;;5012949;28;20037;-73
2023/10/09 15:49:09;;;;;;;5.35;3.33;;;;;;;;;;5012883;28;20038;-74
2023/10/09 15:51:35;;;;;;;6.30;3.42;;;;;;;;;;5012661;28;20048;-74
2023/10/09 15:54:01;;;;;;;5.05;3.35;;;;;;;;;;5012798;28;20030;-73
2023/10/09 15:56:27;;;;;;;6.60;3.53;;;23.20;83.20;;;;;;5012733;28;20105;-73
2023/10/09 15:58:54;;;;;;;5.85;3.45;;;;;;;;;;5012618;28;20048;-74
2023/10/09 16:01:22;;;;;;;5.15;3.13;;;;;;;;;;5012381;28;20030;-73
2023/10/09 16:03:48;;;;;;;5.72;3.15;;;;;;;;;;5012465;28;20133;-72
2023/10/09 16:06:15;;;;;;;6.10;3.25;;;;;;;;;;5012504;28;20065;-73
2023/10/09 16:08:47;;;;;;;6.75;3.33;;;23.10;87.00;;;;;;5012759;28;20113;-73
2023/10/09 16:11:19;;;;;;;7.57;3.60;;;23.10;81.60;;;;;;5012393;28;20109;-76
2023/10/09 16:13:46;;;;;;;5.35;3.35;;;;;;;;;;5012505;28;20034;-73
2023/10/09 16:16:13;;;;;;;6.10;3.17;;;;;;;;;;5012609;28;20053;-75
2023/10/09 16:18:39;;;;;;;5.25;3.17;;;;;;;;;;5012365;28;20026;-72
2023/10/09 16:21:08;;;;;;;7.05;3.35;;;23.00;85.10;;;;;;5012351;28;20268;-71
2023/10/09 16:23:36;;;;;;;6.10;3.30;;;;;;;;;;5011994;28;20389;-71
2023/10/09 16:26:04;;;;;;;5.13;3.03;;;;;;;;;;5012477;28;20411;-72
2023/10/09 16:28:31;;;;;;;4.60;2.75;;;;;;;;;;5012005;28;20022;-72
2023/10/09 16:30:58;;;;;;;5.55;3.20;;;;;;;;;;5012129;28;20041;-71
2023/10/09 16:33:26;;;;;;;6.38;3.35;;;;;;;;;;5011880;28;20030;-71
2023/10/09 16:35:54;;;;;;;5.65;3.47;;;;;;;;;;5011949;28;20041;-71
2023/10/09 16:38:22;;;;;;;4.10;3.03;;;;;;;;;;5011987;28;20033;-72
2023/10/09 16:40:53;;;;;;;6.82;3.17;;;23.00;87.80;;;;;;5011881;28;20042;-73
2023/10/09 16:43:21;;;;;;;3.58;2.90;;;;;;;;;;5011951;28;20065;-72
2023/10/09 16:45:50;;;;;;;4.88;2.85;;;;;;;;;;5011556;28;20053;-72
2023/10/09 16:48:17;;;;;;;4.20;2.67;;;;;;;;;;5011995;28;20037;-72
2023/10/09 16:50:46;;;;;;;7.32;3.00;;;;;;;;;;5012132;28;20042;-72
2023/10/09 16:53:13;;;;;;;8.85;3.28;;;;;;;;;;5012249;28;20144;-71
2023/10/09 16:55:48;;;;;;;7.68;3.42;;;22.90;87.60;;;;;;5012152;28;20401;-73
2023/10/09 16:58:15;;;;;;;4.65;3.00;;;;;;;;;;5011843;28;20068;-72
2023/10/09 17:00:45;;;;;;;6.20;3.33;;;;;;;;;;5011745;28;20030;-73
2023/10/09 17:03:14;;;;;;;7.43;3.13;;;;;;;;;;5011544;28;20424;-73
2023/10/09 17:06:17;;;;;;;5.50;3.80;;;;;;;;;;5011574;28;20152;-69
2023/10/09 17:08:34;;;;;;;9.00;3.13;;;;;;;;;;5008690;28;20042;-72
2023/10/09 17:11:03;;;;;;;6.25;2.83;;;;;;;;;;5011917;28;20061;-72
2023/10/09 17:13:29;;;;;;;7.20;3.20;;;;;;;;;;5011679;28;20034;-72
2023/10/09 17:15:55;;;;;;;5.70;2.80;;;;;;;;;;5011656;28;20116;-72